Latest Coastal Weather Observations for Cape Naturaliste

IDW60701

Issued at 3:53 am WST Saturday 25 November 2017 (issued every 10 minutes, with the page automatically refreshed every 10 minutes)

About coastal observations | Map of coastal stations | Coastal observations for WA | Marine services | Other Formats
Station Details ID: 009519 Name: CAPE NATURALISTE Lat: -33.54 Lon: 115.02 Height: 109.0 m
Data from the previous 72 hours. | See also: Recent months at Cape Naturaliste
Date/Time
WST
Temp
°C
Wind Pressure Rain since
9am
mm
Weather Cloud Vis
km
Sea
Height
m
Swell
Dir  Spd
kts
Gust
kts
hPa Trend Height
m
Period
s
Dir
25/03:30am 15.3 S 16 22 1013.1 - 0.0 - - - - - - -
25/03:00am 15.0 S 15 21 1013.0 - 0.0 - - - - - - -
25/02:30am 14.5 S 13 19 1012.9 - 0.0 - - - - - - -
25/02:00am 14.1 S 11 15 1012.9 - 0.0 - - - - - - -
25/01:30am 13.9 S 11 14 1012.9 - 0.0 - - - - - - -
25/01:00am 14.4 S 12 18 1013.0 - 0.0 - - - - - - -
25/12:30am 14.1 S 13 17 1012.9 - 0.0 - - - - - - -
25/12:00am 14.1 SSW 11 14 1013.1 - 0.0 - - - - - - -
 
Date/Time
WST
Temp
°C
Wind Pressure Rain since
9am
mm
Weather Cloud Vis
km
Sea
Height
m
Swell
Dir  Spd
kts
Gust
kts
hPa Trend Height
m
Period
s
Dir
24/11:30pm 14.3 S 11 14 1013.3 - 0.0 - - - - - - -
24/11:00pm 14.3 S 9 13 1013.4 - 0.0 - - - - - - -
24/10:30pm 14.4 S 9 12 1013.4 - 0.0 - - - - - - -
24/10:00pm 14.7 S 9 13 1013.5 - 0.0 - - - - - - -
24/09:30pm 15.1 S 13 17 1013.4 - 0.0 - - - - - - -
24/09:00pm 15.6 S 16 23 1013.0 - 0.0 - - - - - - -
24/08:41pm 15.8 S 15 26 1012.7 - 0.0 - - - - - - -
24/08:30pm 15.9 S 15 23 1012.6 - 0.0 - - - - - - -
24/08:01pm 16.4 S 17 27 1012.4 - 0.0 - - - - - - -
24/08:00pm 16.5 S 18 27 1012.4 - 0.0 - - - - - - -
24/07:55pm 16.6 S 17 27 1012.4 - 0.0 - - - - - - -
24/07:30pm 17.0 S 17 24 1012.3 - 0.0 - - - - - - -
24/07:01pm 17.6 SSW 22 32 1011.7 - 0.0 - - - - - - -
24/07:00pm 17.7 SSW 23 32 1011.7 - 0.0 - - - - - - -
24/06:30pm 18.3 SSW 22 31 1011.4 - 0.0 - - - - - - -
24/06:00pm 19.0 SSW 24 32 1011.1 - 0.0 - - - - - - -
24/05:42pm 19.7 SSW 23 33 1010.8 - 0.0 - - - - - - -
24/05:30pm 19.8 SSW 23 32 1010.8 - 0.0 - - - - - - -
24/05:00pm 20.0 SSW 25 33 1010.6 - 0.0 - - - - - - -
24/04:30pm 20.6 SSW 25 32 1010.5 - 0.0 - - - - - - -
24/04:00pm 21.2 SSW 23 29 1010.6 - 0.0 - - - - - - -
24/03:30pm 22.2 SSW 21 30 1010.7 - 0.0 - - - - - - -
24/03:00pm 21.9 SSW 22 30 1010.6 - 0.0 - - - - - - -
24/02:40pm 22.3 SSW 22 32 1010.7 - 0.0 - - - - - - -
24/02:30pm 22.6 SSW 21 29 1010.8 - 0.0 - - - - - - -
24/02:15pm 22.9 SSW 20 31 1010.8 - 0.0 - - - - - - -
24/02:00pm 23.1 SSW 19 26 1010.9 - 0.0 - - - - - - -
24/01:30pm 23.0 SSW 20 27 1011.1 - 0.0 - - - - - - -
24/01:00pm 22.6 SSW 21 29 1011.5 - 0.0 - - - - - - -
24/12:41pm 22.8 SSW 19 29 1011.6 - 0.0 - - - - - - -
24/12:30pm 22.2 SSW 20 27 1011.7 - 0.0 - - - - - - -
24/12:00pm 21.8 SSW 20 26 1012.0 - 0.0 - - - - - - -
24/11:30am 22.0 SSW 19 26 1012.2 - 0.0 - - - - - - -
24/11:00am 23.2 SW 13 18 1012.5 - 0.0 - - - - - - -
24/10:30am 21.9 SW 7 11 1012.8 - 0.0 - - - - - - -
24/10:00am 22.1 NNE 5 8 1012.9 - 0.0 - - - - - - -
24/09:30am 21.5 E 9 11 1013.1 - 0.0 - - - - - - -
24/09:00am 21.4 ESE 7 10 1013.2 - 0.0 - - - - - - -
24/08:30am 18.2 ESE 14 17 1012.9 - 0.0 - - - - - - -
24/08:00am 17.6 ESE 16 19 1012.7 - 0.0 - - - - - - -
24/07:30am 17.8 ESE 15 20 1012.7 - 0.0 - - - - - - -
24/07:00am 16.3 ESE 15 19 1012.8 - 0.0 - - - - - - -
24/06:30am 16.3 SE 14 19 1012.9 - 0.0 - - - - - - -
24/06:00am 15.4 SE 14 19 1012.9 - 0.0 - - - - - - -
24/05:30am 14.1 SE 15 19 1012.7 - 0.0 - - - - - - -
24/05:00am 14.0 SE 14 17 1012.8 - 0.0 - - - - - - -
24/04:30am 14.2 SE 14 18 1012.4 - 0.0 - - - - - - -
24/04:00am 14.4 SE 14 19 1012.3 - 0.0 - - - - - - -
24/03:30am 14.6 SE 14 17 1012.5 - 0.0 - - - - - - -
24/03:00am 15.1 SE 15 20 1012.6 - 0.0 - - - - - - -
24/02:30am 15.2 SE 14 18 1012.9 - 0.0 - - - - - - -
24/02:00am 15.4 SE 12 16 1013.2 - 0.0 - - - - - - -
24/01:30am 15.7 SE 11 14 1013.5 - 0.0 - - - - - - -
24/01:00am 16.0 SE 11 14 1013.8 - 0.0 - - - - - - -
24/12:30am 16.4 SE 12 16 1013.9 - 0.0 - - - - - - -
24/12:00am 16.8 SE 13 19 1014.1 - 0.0 - - - - - - -
 
Date/Time
WST
Temp
°C
Wind Pressure Rain since
9am
mm
Weather Cloud Vis
km
Sea
Height
m
Swell
Dir  Spd
kts
Gust
kts
hPa Trend Height
m
Period
s
Dir
23/11:30pm 16.9 SE 13 17 1014.6 - 0.0 - - - - - - -
23/11:00pm 17.4 SE 14 18 1014.8 - 0.0 - - - - - - -
23/10:30pm 17.7 SE 15 20 1014.8 - 0.0 - - - - - - -
23/10:00pm 17.7 SSE 15 20 1014.7 - 0.0 - - - - - - -
23/09:30pm 17.6 SSE 16 23 1014.8 - 0.0 - - - - - - -
23/09:00pm 17.3 SSE 15 20 1015.0 - 0.0 - - - - - - -
23/08:30pm 17.5 SSE 14 19 1015.0 - 0.0 - - - - - - -
23/08:00pm 18.3 SSE 10 14 1015.0 - 0.0 - - - - - - -
23/07:30pm 19.1 S 13 17 1014.8 - 0.0 - - - - - - -
23/07:00pm 19.3 SSW 13 17 1014.8 - 0.0 - - - - - - -
23/06:30pm 20.5 SSW 15 19 1014.7 - 0.0 - - - - - - -
23/06:00pm 22.1 SSW 16 22 1014.5 - 0.0 - - - - - - -
23/05:30pm 22.9 SSW 17 23 1014.6 - 0.0 - - - - - - -
23/05:00pm 23.2 SSW 17 22 1014.6 - 0.0 - - - - - - -
23/04:30pm 23.3 SSW 16 22 1014.7 - 0.0 - - - - - - -
23/04:00pm 22.7 SSW 15 19 1015.0 - 0.0 - - - - - - -
23/03:30pm 22.7 SSW 13 19 1015.1 - 0.0 - - - - - - -
23/03:00pm 22.5 SSW 14 18 1015.4 - 0.0 - - - - - - -
23/02:30pm 22.5 SW 12 17 1015.7 - 0.0 - - - - - - -
23/02:00pm 23.0 SW 11 15 1016.0 - 0.0 - - - - - - -
23/01:30pm 23.0 SW 12 17 1016.3 - 0.0 - - - - - - -
23/01:00pm 22.8 SW 10 13 1016.5 - 0.0 - - - - - - -
23/12:30pm 22.5 SW 10 13 1016.9 - 0.0 - - - - - - -
23/12:00pm 22.2 SW 10 13 1017.4 - 0.0 - - - - - - -
23/11:30am 22.8 SW 9 12 1017.6 - 0.0 - - - - - - -
23/11:00am 24.7 SE 7 10 1018.0 - 0.0 - - - - - - -
23/10:30am 22.8 ESE 13 16 1017.9 - 0.0 - - - - - - -
23/10:00am 21.5 ESE 15 19 1018.0 - 0.0 - - - - - - -
23/09:30am 20.0 ESE 15 19 1018.0 - 0.0 - - - - - - -
23/09:00am 18.7 ESE 16 20 1018.4 - 0.0 - - - - - - -
23/08:30am 17.9 ESE 17 22 1018.4 - 0.0 - - - - - - -
23/08:00am 17.0 ESE 17 21 1018.5 - 0.0 - - - - - - -
23/07:30am 16.0 ESE 18 22 1018.6 - 0.0 - - - - - - -
23/07:00am 15.2 ESE 17 21 1018.5 - 0.0 - - - - - - -
23/06:30am 14.1 ESE 17 21 1018.4 - 0.0 - - - - - - -
23/06:00am 12.9 ESE 17 21 1018.3 - 0.0 - - - - - - -
23/05:30am 11.5 ESE 16 19 1018.2 - 0.0 - - - - - - -
23/05:00am 11.4 ESE 17 20 1017.8 - 0.0 - - - - - - -
23/04:30am 11.7 ESE 16 20 1017.6 - 0.0 - - - - - - -
23/04:00am 12.0 ESE 15 19 1017.5 - 0.0 - - - - - - -
23/03:30am 12.6 ESE 17 22 1017.3 - 0.0 - - - - - - -
23/03:00am 12.8 ESE 17 22 1017.3 - 0.0 - - - - - - -
23/02:30am 13.0 ESE 17 21 1017.3 - 0.0 - - - - - - -
23/02:00am 13.4 ESE 18 22 1017.4 - 0.0 - - - - - - -
23/01:30am 13.6 ESE 17 21 1017.6 - 0.0 - - - - - - -
23/01:00am 13.9 ESE 17 22 1017.7 - 0.0 - - - - - - -
23/12:30am 14.1 SE 18 23 1017.9 - 0.0 - - - - - - -
23/12:00am 14.2 SE 17 21 1018.0 - 0.0 - - - - - - -
 
Date/Time
WST
Temp
°C
Wind Pressure Rain since
9am
mm
Weather Cloud Vis
km
Sea
Height
m
Swell
Dir  Spd
kts
Gust
kts
hPa Trend Height
m
Period
s
Dir
22/11:30pm 14.5 SE 18 24 1018.2 - 0.0 - - - - - - -
22/11:00pm 14.8 SE 18 25 1018.2 - 0.0 - - - - - - -
22/10:30pm 15.1 SE 17 26 1018.0 - 0.0 - - - - - - -
22/10:24pm 15.1 SE 17 27 1018.2 - 0.0 - - - - - - -
22/10:00pm 15.3 SE 19 24 1018.4 - 0.0 - - - - - - -
22/09:30pm 15.6 SE 18 24 1018.3 - 0.0 - - - - - - -
22/09:00pm 16.1 SSE 17 25 1018.3 - 0.0 - - - - - - -
22/08:30pm 16.4 SSE 17 27 1018.0 - 0.0 - - - - - - -
22/08:26pm 16.5 SSE 17 27 1018.0 - 0.0 - - - - - - -
22/08:00pm 16.8 SSE 16 23 1018.0 - 0.0 - - - - - - -
22/07:30pm 16.8 S 14 19 1017.9 - 0.0 - - - - - - -
22/07:00pm 17.8 S 15 21 1017.9 - 0.0 - - - - - - -
22/06:30pm 19.8 S 12 19 1017.9 - 0.0 - - - - - - -
22/06:00pm 21.9 S 12 16 1017.6 - 0.0 - - - - - - -
22/05:30pm 23.2 S 12 18 1017.3 - 0.0 - - - - - - -
22/05:00pm 22.0 SSW 13 18 1017.4 - 0.0 - - - - - - -
22/04:30pm 21.4 SW 13 18 1017.7 - 0.0 - - - - - - -
22/04:00pm 21.8 SW 13 18 1018.2 - 0.0 - - - - - - -
22/03:30pm 21.5 SW 14 19 1018.5 - 0.0 - - - - - - -
22/03:00pm 21.8 SW 14 20 1018.7 - 0.0 - - - - - - -
22/02:30pm 21.8 SW 14 18 1018.9 - 0.0 - - - - - - -
22/02:00pm 20.1 SW 12 18 1019.2 - 0.0 - - - - - - -
22/01:30pm 21.3 SW 13 17 1019.3 - 0.0 - - - - - - -
22/01:00pm 21.0 SW 13 17 1019.7 - 0.0 - - - - - - -
22/12:30pm 19.7 SW 12 17 1020.1 - 0.0 - - - - - - -
22/12:00pm 21.7 SW 11 15 1020.3 - 0.0 - - - - - - -
22/11:30am 21.5 E 9 12 1020.6 - 0.0 - - - - - - -
22/11:00am 21.5 E 10 14 1021.0 - 0.0 - - - - - - -
22/10:30am 19.9 E 12 15 1021.3 - 0.0 - - - - - - -
22/10:00am 19.2 E 13 17 1021.4 - 0.0 - - - - - - -
22/09:30am 17.4 E 13 17 1021.5 - 0.0 - - - - - - -
22/09:00am 17.7 E 14 18 1021.6 - 0.0 - - - - - - -
22/08:30am 16.3 E 15 19 1021.8 - - - - - - - - -
22/08:00am 16.2 E 15 19 1021.9 - - - - - - - - -
22/07:30am 15.5 E 16 21 1022.0 - - - - - - - - -
22/07:00am 14.8 E 15 20 1022.0 - - - - - - - - -
22/06:30am 13.5 ESE 13 16 1021.8 - - - - - - - - -
22/06:00am 12.1 ESE 14 17 1021.6 - - - - - - - - -
22/05:30am 11.3 ESE 13 16 1021.4 - - - - - - - - -
22/05:00am 12.9 E 17 22 1021.5 - - - - - - - - -
22/04:30am 13.0 E 18 24 1021.4 - - - - - - - - -
22/04:00am 12.9 E 18 24 1021.2 - - - - - - - - -

Other Formats:

Comma delimited format used in spreadsheet applications
http://www.bom.gov.au/fwo/IDW60701/IDW60701.94600.axf

JavaScript Object Notation format (JSON) in row-major order
http://www.bom.gov.au/fwo/IDW60701/IDW60701.94600.json